Flight Track Log - Related Links

Times and Time Zones

All times are in EDT time to prevent confusion due to time zone crossing. See the N244A flight status page for this flight to view local times or setup timezone preferences in your user account.

Time Position Orientation Groundspeed Altitude Reporting Facility
EDT Latitude Longitude Course Direction KTS MPH feet Rate Location/Type
Fri 05:37:33 PM 42.1000 -87.8833 56° Northeast 172 198 1,200  Level Chicago TRACON
Fri 05:38:34 PM 42.1333 -87.8167 56° Northeast 256 295 2,600 928 Climbing Chicago TRACON
Fri 05:39:10 PM 42.1636 -87.7936 29° Northeast 258 297 2,700 184 Climbing Chicago Center
Fri 05:40:12 PM 42.2344 -87.7919 North 256 295 2,900 97 Climbing Chicago Center
Fri 05:41:14 PM 42.2594 -87.8736 292° West 265 305 2,900 435 Level Chicago Center
Fri 05:42:16 PM 42.2578 -87.9653 269° West 254 292 3,800 484 Climbing Chicago Center
Fri 05:43:18 PM 42.2333 -88.0511 249° West 255 293 3,900 242 Climbing Chicago Center
Fri 05:44:20 PM 42.1792 -88.1347 229° Southwest 259 298 4,300 919 Climbing Chicago Center
Fri 05:45:22 PM 42.1175 -88.1942 216° Southwest 268 308 5,800 2,419 Climbing Chicago Center
Fri 05:46:24 PM 42.0556 -88.2647 220° Southwest 287 330 9,300 2,903 Climbing Chicago Center
Fri 05:47:26 PM 42.0453 -88.3650 262° West 278 320 11,800 1,742 Climbing Chicago Center
Fri 05:48:28 PM 42.0308 -88.4850 261° West 317 365 12,900 1,008 Climbing Chicago Center
Fri 05:49:31 PM 42.0019 -88.6564 257° West 385 443 13,900 1,344 Climbing Chicago Center
Fri 05:50:33 PM 41.9808 -88.8036 259° West 403 464 15,700 1,935 Climbing Chicago Center
Fri 05:51:35 PM 41.9675 -88.9489 263° West 398 458 17,900 2,177 Climbing Chicago Center
Fri 05:52:37 PM 41.9506 -89.0914 261° West 392 451 20,200 1,742 Climbing Chicago Center
Fri 05:53:39 PM 41.9269 -89.2347 258° West 397 457 21,500 1,597 Climbing Chicago Center
Fri 05:54:41 PM 41.8944 -89.4100 256° West 407 468 23,500 1,839 Climbing Chicago Center
Fri 05:55:43 PM 41.8408 -89.5403 241° Southwest 402 463 25,300 1,258 Climbing Chicago Center
Fri 05:56:45 PM 41.7883 -89.6653 241° Southwest 403 464 26,100 774 Climbing Chicago Center
Fri 05:57:47 PM 41.7283 -89.8033 240° Southwest 425 489 26,900 1,403 Climbing Chicago Center
Fri 05:58:49 PM 41.6606 -89.9692 241° Southwest 428 493 29,000 1,548 Climbing Chicago Center
Fri 05:59:51 PM 41.6453 -90.1172 262° West 408 470 30,100 677 Climbing Chicago Center
Fri 06:00:53 PM 41.6394 -90.2775 267° West 452 520 30,400 672 Climbing Chicago Center
Fri 06:01:56 PM 41.6278 -90.4378 264° West 442 509 31,500 1,344 Climbing Chicago Center
Fri 06:02:58 PM 41.6153 -90.5942 264° West 428 493 33,200 1,306 Climbing Chicago Center
Fri 06:04:00 PM 41.6042 -90.7647 265° West 413 475 34,200 581 Climbing Chicago Center
Fri 06:05:02 PM 41.5928 -90.9219 265° West 425 489 34,400 435 Climbing Chicago Center
Fri 06:06:04 PM 41.5822 -91.0839 265° West 438 504 35,100 677 Climbing Chicago Center
Fri 06:06:04 PM 41.5822 -91.0839 265° West 438 504 35,100 1,065 Level Chicago Center
Fri 06:07:06 PM 41.5711 -91.2431 265° West 435 501 36,200 1,065 Climbing Chicago Center
Fri 06:07:06 PM 41.5711 -91.2431 265° West 435 501 36,200 1,161 Level Chicago Center
Fri 06:08:08 PM 41.5558 -91.4294 264° West 425 489 37,400 1,161 Climbing Chicago Center
Fri 06:08:08 PM 41.5558 -91.4294 264° West 425 489 37,400 581 Level Chicago Center
Fri 06:09:10 PM 41.5467 -91.5808 265° West 415 478 38,000 581 Climbing Chicago Center
Fri 06:09:10 PM 41.5467 -91.5808 265° West 415 478 38,000  Level Chicago Center
Fri 06:10:12 PM 41.5339 -91.7364 264° West 421 484 38,000  Level Chicago Center
Fri 06:10:12 PM 41.5339 -91.7364 264° West 421 484 38,000  Level Chicago Center
Fri 06:11:14 PM 41.5219 -91.8947 264° West 431 496 38,000  Level Chicago Center
Fri 06:11:14 PM 41.5219 -91.8947 264° West 431 496 38,000  Level Chicago Center
Fri 06:12:16 PM 41.5083 -92.0556 264° West 438 504 38,000  Level Chicago Center
Fri 06:12:16 PM 41.5083 -92.0556 264° West 438 504 38,000  Level Chicago Center
Fri 06:13:18 PM 41.4933 -92.2544 264° West 450 518 38,000  Level Chicago Center
Fri 06:13:18 PM 41.4933 -92.2544 264° West 450 518 38,000  Level Chicago Center
Fri 06:14:20 PM 41.4814 -92.4094 264° West 455 524 38,000  Level Chicago Center
Fri 06:14:20 PM 41.4814 -92.4094 264° West 455 524 38,000  Level Chicago Center
Fri 06:15:23 PM 41.4658 -92.5739 263° West 454 522 38,000  Level Chicago Center
Fri 06:15:23 PM 41.4658 -92.5739 263° West 454 522 38,000  Level Chicago Center
Fri 06:16:17 PM 41.4528 -92.7475 264° West 464 534 38,000  Level Minneapolis Center
Fri 06:16:17 PM 41.4528 -92.7475 264° West 464 534 38,000  Level Minneapolis Center
Fri 06:17:32 PM 41.4378 -92.9178 263° West 468 539 38,000  Level Minneapolis Center
Fri 06:17:32 PM 41.4378 -92.9178 263° West 468 539 38,000  Level Minneapolis Center
Fri 06:18:34 PM 41.4164 -93.1608 263° West 474 545 38,000  Level Minneapolis Center
Fri 06:18:34 PM 41.4164 -93.1608 263° West 474 545 38,000  Level Minneapolis Center
Fri 06:19:36 PM 41.4011 -93.3317 263° West 473 544 38,000  Level Minneapolis Center
Fri 06:19:36 PM 41.4011 -93.3317 263° West 473 544 38,000  Level Minneapolis Center
Fri 06:20:38 PM 41.3847 -93.5047 263° West 475 547 38,000  Level Minneapolis Center
Fri 06:20:38 PM 41.3847 -93.5047 263° West 475 547 38,000  Level Minneapolis Center
Fri 06:21:41 PM 41.3725 -93.6706 264° West 464 534 38,000  Level Minneapolis Center
Fri 06:21:41 PM 41.3725 -93.6706 264° West 464 534 38,000  Level Minneapolis Center
Fri 06:22:43 PM 41.3553 -93.8422 262° West 470 541 38,000  Level Minneapolis Center
Fri 06:22:43 PM 41.3553 -93.8422 262° West 470 541 38,000 -97 Level Minneapolis Center
Fri 06:23:45 PM 41.3367 -94.0428 263° West 464 534 37,900 -97 Descending Minneapolis Center
Fri 06:23:45 PM 41.3367 -94.0428 263° West 464 534 37,900 97 Level Minneapolis Center
Fri 06:24:47 PM 41.3189 -94.2256 263° West 462 532 38,000 97 Climbing Minneapolis Center
Fri 06:24:47 PM 41.3189 -94.2256 263° West 462 532 38,000  Level Minneapolis Center
Fri 06:25:49 PM 41.3008 -94.3928 262° West 459 528 38,000  Level Minneapolis Center
Fri 06:25:49 PM 41.3008 -94.3928 262° West 459 528 38,000  Level Minneapolis Center
Fri 06:26:51 PM 41.2853 -94.5594 263° West 457 526 38,000  Level Minneapolis Center
Fri 06:26:51 PM 41.2853 -94.5594 263° West 457 526 38,000  Level Minneapolis Center
Fri 06:27:53 PM 41.2678 -94.7267 262° West 456 525 38,000  Level Minneapolis Center
Fri 06:27:53 PM 41.2678 -94.7267 262° West 456 525 38,000  Level Minneapolis Center
Fri 06:29:07 PM 41.2500 -94.8950 262° West 458 527 38,000  Level Minneapolis Center
Fri 06:29:07 PM 41.2500 -94.8950 262° West 458 527 38,000  Level Minneapolis Center
Fri 06:30:10 PM 41.2281 -95.0983 262° West 462 532 38,000  Level Minneapolis Center
Fri 06:30:10 PM 41.2281 -95.0983 262° West 462 532 38,000  Level Minneapolis Center
Fri 06:31:12 PM 41.2053 -95.3019 262° West 463 533 38,000  Level Minneapolis Center
Fri 06:31:12 PM 41.2053 -95.3019 262° West 463 533 38,000  Level Minneapolis Center
Fri 06:32:14 PM 41.1864 -95.4728 262° West 464 534 38,000  Level Minneapolis Center
Fri 06:32:14 PM 41.1864 -95.4728 262° West 464 534 38,000  Level Minneapolis Center
Fri 06:33:16 PM 41.1675 -95.6286 261° West 466 536 38,000  Level Minneapolis Center
Fri 06:33:16 PM 41.1675 -95.6286 261° West 466 536 38,000  Level Minneapolis Center
Fri 06:34:18 PM 41.1508 -95.7964 263° West 462 532 38,000  Level Minneapolis Center
Fri 06:34:18 PM 41.1508 -95.7964 263° West 462 532 38,000  Level Minneapolis Center
Fri 06:35:20 PM 41.1281 -96.0014 262° West 467 537 38,000  Level Minneapolis Center
Fri 06:35:20 PM 41.1281 -96.0014 262° West 467 537 38,000  Level Minneapolis Center
Fri 06:36:22 PM 41.1069 -96.1600 260° West 468 539 38,000  Level Minneapolis Center
Fri 06:36:22 PM 41.1069 -96.1600 260° West 468 539 38,000  Level Minneapolis Center
Fri 06:37:24 PM 41.0883 -96.3314 262° West 467 537 38,000  Level Minneapolis Center
Fri 06:37:24 PM 41.0883 -96.3314 262° West 467 537 38,000  Level Minneapolis Center
Fri 06:38:26 PM 41.0686 -96.5017 261° West 466 536 38,000  Level Minneapolis Center
Fri 06:38:26 PM 41.0686 -96.5017 261° West 466 536 38,000  Level Minneapolis Center
Fri 06:39:40 PM 41.0422 -96.7064 260° West 468 539 38,000  Level Minneapolis Center
Fri 06:39:40 PM 41.0422 -96.7064 260° West 468 539 38,000  Level Minneapolis Center
Fri 06:40:43 PM 41.0186 -96.9097 261° West 466 536 38,000  Level Minneapolis Center
Fri 06:41:00 PM 41.0189 -96.9068 261° West  Level FlightAware Approximate
Fri 06:41:45 PM 40.9958 -97.0786 260° West 467 537 38,000  Level Minneapolis Center
Fri 06:42:47 PM 40.9769 -97.2483 262° West 466 536 38,000  Level Minneapolis Center
Fri 06:43:49 PM 40.9539 -97.4267 260° West 468 539 38,000  Level Minneapolis Center
Fri 06:44:51 PM 40.9319 -97.5964 260° West 469 540 38,000  Level Minneapolis Center
Fri 06:45:53 PM 40.9114 -97.7661 261° West 468 539 38,000  Level Minneapolis Center
Fri 06:46:56 PM 40.8872 -97.9358 259° West 469 540 38,000  Level Minneapolis Center
Fri 06:47:58 PM 40.8600 -98.1400 260° West 469 540 38,000  Level Minneapolis Center
Fri 06:48:00 PM 40.8851 -97.9551 259° West  Level FlightAware Approximate
Fri 06:49:00 PM 40.8638 -98.1042 260° West  Level FlightAware Approximate
Fri 06:49:12 PM 40.8369 -98.3092 260° West 468 539 38,000  Level Minneapolis Center
Fri 06:50:00 PM 40.8434 -98.2535 260° West  Level FlightAware Approximate
Fri 06:50:14 PM 40.8119 -98.5003 260° West 467 537 38,000  Level Minneapolis Center
Fri 06:51:00 PM 40.8229 -98.4026 260° West  Level FlightAware Approximate
Fri 06:51:16 PM 40.7872 -98.6678 259° West 466 536 38,000  Level Minneapolis Center
Fri 06:52:00 PM 40.8021 -98.5517 260° West  Level FlightAware Approximate
Fri 06:52:30 PM 40.7589 -98.8697 260° West 467 537 38,000  Level Minneapolis Center
Fri 06:53:00 PM 40.7811 -98.7007 259° West  Level FlightAware Approximate
Fri 06:53:33 PM 40.7350 -99.0550 260° West 464 534 38,000  Level Minneapolis Center
Fri 06:54:00 PM 40.7598 -98.8495 259° West  Level FlightAware Approximate
Fri 06:54:33 PM 40.7111 -99.2225 259° West 463 533 38,000  Level Denver Center
Fri 06:55:00 PM 40.7384 -98.9983 259° West  Level FlightAware Approximate
Fri 06:55:35 PM 40.6858 -99.3897 259° West 464 534 38,000  Level Denver Center
Fri 06:56:00 PM 40.7172 -99.1470 259° West  Level FlightAware Approximate
Fri 06:56:37 PM 40.6619 -99.5561 259° West 462 532 38,000  Level Denver Center
Fri 06:57:00 PM 40.6958 -99.2957 259° West  Level FlightAware Approximate
Fri 06:57:38 PM 40.6333 -99.7547 259° West 459 528 38,000  Level Denver Center
Fri 06:58:00 PM 40.6743 -99.4443 259° West  Level FlightAware Approximate
Fri 06:58:40 PM 40.6086 -99.9186 259° West 458 527 38,000  Level Denver Center
Fri 06:59:00 PM 40.6526 -99.5928 259° West  Level FlightAware Approximate
Fri 06:59:42 PM 40.5853 -100.0764 259° West 459 528 38,000  Level Denver Center
Fri 07:00:00 PM 40.6307 -99.7412 259° West  Level FlightAware Approximate
Fri 07:01:00 PM 40.6086 -99.8895 259° West  Level FlightAware Approximate
Fri 07:02:00 PM 40.5863 -100.0377 259° West  Level FlightAware Approximate
Fri 07:03:00 PM 40.5639 -100.1859 259° West  Level FlightAware Approximate
Fri 07:04:00 PM 40.5412 -100.3339 259° West  Level FlightAware Approximate
Fri 07:05:00 PM 40.5184 -100.4818 259° West  Level FlightAware Approximate
Fri 07:07:11 PM 40.4678 -100.8044 259° West  Level FlightAware Approximate
Fri 07:09:00 PM 40.4306 -101.0737 261° West  Level FlightAware Approximate
Fri 07:10:00 PM 40.4119 -101.2224 261° West  Level FlightAware Approximate
Fri 07:11:00 PM 40.3932 -101.3710 261° West  Level FlightAware Approximate
Fri 07:12:00 PM 40.3742 -101.5195 261° West  Level FlightAware Approximate
Fri 07:13:00 PM 40.3550 -101.6680 260° West  Level FlightAware Approximate
Fri 07:14:00 PM 40.3356 -101.8163 260° West  Level FlightAware Approximate
Fri 07:15:00 PM 40.3161 -101.9646 260° West  Level FlightAware Approximate
Fri 07:16:00 PM 40.2963 -102.1128 260° West  Level FlightAware Approximate
Fri 07:17:00 PM 40.2764 -102.2609 260° West  Level FlightAware Approximate
Fri 07:18:00 PM 40.2562 -102.4089 260° West  Level FlightAware Approximate
Fri 07:19:00 PM 40.2359 -102.5568 260° West  Level FlightAware Approximate
Fri 07:20:00 PM 40.2154 -102.7046 260° West  Level FlightAware Approximate
Fri 07:21:00 PM 40.1947 -102.8524 260° West  Level FlightAware Approximate
Fri 07:22:00 PM 40.1738 -103.0000 260° West  Level FlightAware Approximate
Fri 07:23:00 PM 40.1527 -103.1476 259° West  Level FlightAware Approximate
Fri 07:24:00 PM 40.1372 -103.2962 263° West  Level FlightAware Approximate
Fri 07:25:00 PM 40.1222 -103.4450 263° West  Level FlightAware Approximate
Fri 07:26:00 PM 40.1118 -103.5943 266° West  Level FlightAware Approximate
Fri 07:27:00 PM 40.1039 -103.7439 266° West  Level FlightAware Approximate
Fri 07:28:00 PM 40.0941 -103.8934 264° West  Level FlightAware Approximate
Fri 07:29:00 PM 40.0826 -104.0425 264° West  Level FlightAware Approximate
Fri 07:30:00 PM 40.0708 -104.1917 264° West  Level FlightAware Approximate
Fri 07:31:00 PM 40.0589 -104.3408 264° West  Level FlightAware Approximate
Fri 07:32:00 PM 40.0480 -104.4899 266° West  Level FlightAware Approximate
Fri 07:33:00 PM 40.0401 -104.6394 266° West  Level FlightAware Approximate
Fri 07:34:00 PM 40.0333 -104.7889 270° West  Level FlightAware Approximate
Fri 07:35:00 PM 40.0253 -104.9383 265° West  Level FlightAware Approximate
Fri 07:36:00 PM 40.0167 -105.0876 270° West  Level FlightAware Approximate
Fri 07:37:00 PM 40.0167 -105.2374 270° West  Level FlightAware Approximate
Fri 07:38:00 PM 40.0167 -105.3872 270° West  Level FlightAware Approximate
Fri 07:39:00 PM 40.0143 -105.5369 267° West  Level FlightAware Approximate
Fri 07:40:00 PM 40.0090 -105.6865 267° West  Level FlightAware Approximate
Fri 07:41:00 PM 40.0036 -105.8361 267° West  Level FlightAware Approximate
Fri 07:42:00 PM 40.0000 -105.9858 270° West  Level FlightAware Approximate
Fri 07:43:00 PM 40.0000 -106.1355 270° West  Level FlightAware Approximate
Fri 07:44:00 PM 40.0000 -106.2853 270° West  Level FlightAware Approximate
Fri 07:45:00 PM 39.9990 -106.4344 217° Southwest  Level FlightAware Approximate
Fri 07:46:00 PM 39.9162 -106.5373 227° Southwest  Level FlightAware Approximate
Fri 07:47:00 PM 39.8354 -106.6433 224° Southwest  Level FlightAware Approximate
Fri 07:48:00 PM 39.7526 -106.7467 224° Southwest  Level FlightAware Approximate
Fri 07:49:00 PM 39.6711 -106.8516 225° Southwest  Level FlightAware Approximate
Fri 07:50:00 PM 39.6333 -106.9000 225° Southwest  Level FlightAware Approximate
Fri 07:51:00 PM 39.6648 -106.7567 225° Southwest  Level Estimated
Fri 07:52:00 PM 39.6333 -106.9000 225° Southwest  Level FlightAware Approximate
Fri 07:53:00 PM 39.6648 -106.7567 225° Southwest  Level Estimated
Fri 07:54:00 PM 39.6333 -106.9000 225° Southwest  Level FlightAware Approximate
Fri 07:55:00 PM 39.6648 -106.7567 225° Southwest  Level Estimated
Fri 07:56:00 PM 39.6333 -106.9000 225° Southwest  Level FlightAware Approximate
Fri 07:57:00 PM 39.6648 -106.7567 225° Southwest  Level Estimated
Fri 07:58:00 PM 39.6333 -106.9000 225° Southwest  Level FlightAware Approximate
Fri 07:59:00 PM 39.6648 -106.7567 225° Southwest  Level Estimated
Fri 08:00:00 PM 39.6333 -106.9000 225° Southwest  Level FlightAware Approximate
Fri 08:01:00 PM 39.6648 -106.7567 225° Southwest  Level Estimated
Fri 08:02:00 PM 39.6333 -106.9000 225° Southwest  Level FlightAware Approximate

Login

Don't have an account? Register now (free) for customized features, flight alerts, and more!